createdAt,value
2019-03-31T00:00:28.812Z,67.84
2019-03-31T00:01:28.821Z,67.74
2019-03-31T00:02:28.779Z,67.84
2019-03-31T00:03:28.761Z,67.94
2019-03-31T00:04:28.760Z,66.92
2019-03-31T00:05:28.764Z,67.54
2019-03-31T00:06:28.747Z,67.94
2019-03-31T00:07:28.720Z,68.35
2019-03-31T00:08:28.710Z,68.46
2019-03-31T00:09:28.696Z,68.15
2019-03-31T00:10:28.718Z,68.35
2019-03-31T00:11:28.703Z,68.35
2019-03-31T00:12:28.663Z,68.55
2019-03-31T00:13:28.655Z,68.66
2019-03-31T00:14:28.647Z,68.15
2019-03-31T00:15:28.630Z,68.49
2019-03-31T00:16:28.646Z,68.49
2019-03-31T00:17:28.608Z,68.49
2019-03-31T00:18:28.593Z,68.38
2019-03-31T00:19:28.581Z,69.20
2019-03-31T00:20:28.573Z,68.69
2019-03-31T00:21:28.581Z,69.61
2019-03-31T00:22:28.550Z,68.28
2019-03-31T00:23:28.547Z,69.20
2019-03-31T00:24:28.527Z,69.00
2019-03-31T00:25:28.523Z,68.90
2019-03-31T00:26:28.527Z,69.10
2019-03-31T00:27:28.491Z,69.31
2019-03-31T00:28:28.480Z,69.20
2019-03-31T00:29:28.473Z,68.90
2019-03-31T00:30:28.463Z,69.00
2019-03-31T00:31:28.474Z,69.10
2019-03-31T00:32:28.445Z,68.79
2019-03-31T00:33:28.429Z,68.59
2019-03-31T00:34:28.432Z,69.41
2019-03-31T00:35:28.401Z,69.31
2019-03-31T00:36:28.422Z,69.00
2019-03-31T00:37:28.384Z,68.79
2019-03-31T00:38:28.368Z,69.51
2019-03-31T00:39:28.354Z,69.51
2019-03-31T00:40:28.364Z,68.79
2019-03-31T00:41:28.363Z,68.38
2019-03-31T00:42:28.325Z,68.90
2019-03-31T00:43:28.313Z,68.41
2019-03-31T00:44:28.300Z,68.69
2019-03-31T00:45:28.300Z,69.41
2019-03-31T00:46:28.315Z,68.73
2019-03-31T00:47:28.270Z,69.34
2019-03-31T00:48:28.259Z,69.65
2019-03-31T00:49:28.255Z,70.16
2019-03-31T00:50:28.946Z,69.85
2019-03-31T00:51:28.269Z,69.85
2019-03-31T00:52:28.219Z,69.95
2019-03-31T00:53:28.199Z,70.16
2019-03-31T00:54:28.196Z,69.95
2019-03-31T00:55:28.174Z,70.06
2019-03-31T00:56:28.173Z,71.01
2019-03-31T00:57:28.175Z,70.29
2019-03-31T00:58:28.146Z,69.98
2019-03-31T00:59:28.137Z,71.01
2019-03-31T01:00:28.124Z,70.81
2019-03-31T01:01:36.225Z,70.81
2019-03-31T01:02:29.123Z,70.40
2019-03-31T01:03:28.087Z,70.60
2019-03-31T01:04:28.079Z,71.11
2019-03-31T01:05:28.066Z,70.50
2019-03-31T01:06:28.070Z,71.62
2019-03-31T01:07:28.075Z,71.32
2019-03-31T01:08:28.040Z,71.93
2019-03-31T01:09:28.075Z,71.52
2019-03-31T01:10:28.013Z,71.25
2019-03-31T01:11:27.996Z,71.15
2019-03-31T01:12:28.004Z,71.15
2019-03-31T01:13:27.981Z,71.62
2019-03-31T01:14:27.963Z,71.86
2019-03-31T01:15:27.954Z,71.66
2019-03-31T01:16:27.946Z,72.07
2019-03-31T01:17:27.948Z,72.27
2019-03-31T01:18:27.919Z,72.48
2019-03-31T01:19:27.917Z,72.58
2019-03-31T01:20:27.895Z,72.68
2019-03-31T01:21:27.889Z,72.72
2019-03-31T01:22:27.894Z,73.19
2019-03-31T01:23:27.880Z,73.10
2019-03-31T01:24:27.857Z,72.72
2019-03-31T01:25:27.842Z,73.10
2019-03-31T01:26:27.827Z,73.23
2019-03-31T01:27:27.833Z,73.33
2019-03-31T01:28:27.810Z,73.44
2019-03-31T01:29:27.800Z,73.50
2019-03-31T01:30:27.789Z,73.44
2019-03-31T01:31:28.478Z,73.44
2019-03-31T01:32:27.778Z,73.54
2019-03-31T01:33:27.753Z,73.64
2019-03-31T01:34:27.741Z,74.05
2019-03-31T01:35:27.727Z,74.15
2019-03-31T01:36:27.729Z,74.15
2019-03-31T01:37:27.740Z,74.05
2019-03-31T01:38:27.710Z,73.95
2019-03-31T01:39:27.684Z,74.26
2019-03-31T01:40:27.673Z,74.26
2019-03-31T01:41:27.658Z,74.15
2019-03-31T01:42:27.656Z,74.57
2019-03-31T01:43:27.658Z,74.15
2019-03-31T01:44:27.645Z,74.66
2019-03-31T01:45:27.614Z,74.63
2019-03-31T01:46:27.601Z,74.57
2019-03-31T01:47:27.606Z,74.12
2019-03-31T01:48:27.607Z,73.57
2019-03-31T01:49:27.568Z,73.27
2019-03-31T01:50:27.561Z,73.27
2019-03-31T01:51:27.551Z,73.36
2019-03-31T01:52:27.532Z,73.27
2019-03-31T01:53:27.553Z,73.47
2019-03-31T01:54:27.513Z,72.82
2019-03-31T01:55:27.503Z,73.13
2019-03-31T01:56:27.487Z,72.61
2019-03-31T01:57:27.500Z,72.82
2019-03-31T01:58:27.492Z,72.78
2019-03-31T01:59:27.464Z,72.69
2019-03-31T02:00:27.447Z,72.58
2019-03-31T02:01:27.431Z,72.58
2019-03-31T02:02:27.478Z,72.58
2019-03-31T02:03:27.433Z,72.48
2019-03-31T02:04:27.408Z,72.48
2019-03-31T02:05:27.385Z,72.58
2019-03-31T02:06:27.381Z,72.58
2019-03-31T02:07:27.368Z,72.48
2019-03-31T02:08:27.370Z,72.69
2019-03-31T02:09:27.340Z,72.48
2019-03-31T02:10:27.339Z,72.24
2019-03-31T02:11:27.323Z,72.17
2019-03-31T02:12:27.316Z,72.04
2019-03-31T02:13:27.324Z,72.17
2019-03-31T02:14:27.288Z,72.04
2019-03-31T02:15:27.276Z,71.94
2019-03-31T02:16:27.278Z,71.83
2019-03-31T02:17:27.249Z,72.17
2019-03-31T02:18:27.260Z,71.83
2019-03-31T02:19:27.232Z,72.04
2019-03-31T02:20:27.220Z,72.14
2019-03-31T02:21:27.210Z,71.83
2019-03-31T02:22:27.194Z,71.94
2019-03-31T02:23:27.205Z,72.24
2019-03-31T02:24:27.176Z,72.24
2019-03-31T02:25:27.162Z,72.24
2019-03-31T02:26:27.155Z,72.38
2019-03-31T02:27:27.145Z,72.58
2019-03-31T02:28:27.148Z,72.58
2019-03-31T02:29:27.117Z,72.69
2019-03-31T02:30:27.107Z,72.78
2019-03-31T02:31:27.095Z,73.20
2019-03-31T02:32:27.086Z,73.10
2019-03-31T02:33:27.092Z,72.89
2019-03-31T02:34:27.061Z,73.20
2019-03-31T02:35:27.046Z,73.33
2019-03-31T02:36:27.042Z,73.40
2019-03-31T02:37:27.026Z,73.30
2019-03-31T02:38:27.030Z,73.30
2019-03-31T02:39:27.008Z,73.33
2019-03-31T02:40:27.000Z,73.20
2019-03-31T02:41:26.979Z,73.30
2019-03-31T02:42:26.968Z,73.50
2019-03-31T02:43:26.989Z,73.74
2019-03-31T02:44:26.952Z,73.44
2019-03-31T02:45:26.940Z,73.74
2019-03-31T02:46:26.925Z,74.15
2019-03-31T02:47:26.921Z,74.15
2019-03-31T02:48:26.930Z,74.05
2019-03-31T02:49:26.899Z,74.46
2019-03-31T02:50:26.877Z,74.36
2019-03-31T02:51:26.874Z,74.26
2019-03-31T02:52:26.865Z,74.46
2019-03-31T02:53:26.874Z,75.07
2019-03-31T02:54:26.836Z,74.77
2019-03-31T02:55:26.834Z,74.70
2019-03-31T02:56:26.816Z,75.01
2019-03-31T02:57:26.798Z,74.90
2019-03-31T02:58:26.821Z,75.11
2019-03-31T02:59:26.783Z,75.01
2019-03-31T03:00:26.767Z,75.11
2019-03-31T03:01:26.760Z,75.31
2019-03-31T03:02:40.529Z,75.11
2019-03-31T03:03:27.753Z,75.62
2019-03-31T03:04:26.739Z,75.42
2019-03-31T03:05:26.721Z,75.82
2019-03-31T03:06:26.704Z,75.96
2019-03-31T03:07:26.689Z,76.17
2019-03-31T03:08:26.676Z,76.27
2019-03-31T03:09:26.682Z,76.27
2019-03-31T03:10:26.658Z,76.24
2019-03-31T03:11:26.641Z,76.37
2019-03-31T03:12:26.636Z,76.58
2019-03-31T03:13:26.618Z,76.58
2019-03-31T03:14:26.626Z,77.09
2019-03-31T03:15:26.598Z,76.48
2019-03-31T03:16:26.592Z,75.96
2019-03-31T03:17:26.574Z,76.68
2019-03-31T03:18:26.571Z,76.99
2019-03-31T03:19:26.573Z,76.07
2019-03-31T03:20:26.545Z,77.33
2019-03-31T03:21:26.533Z,76.89
2019-03-31T03:22:26.521Z,77.33
2019-03-31T03:23:26.510Z,77.44
2019-03-31T03:24:26.520Z,77.40
2019-03-31T03:25:26.483Z,77.40
2019-03-31T03:26:26.486Z,77.44
2019-03-31T03:27:26.470Z,77.95
2019-03-31T03:28:26.447Z,77.84
2019-03-31T03:29:26.456Z,77.74
2019-03-31T03:30:26.516Z,77.29
2019-03-31T03:31:26.418Z,77.29
2019-03-31T03:32:26.413Z,77.84
2019-03-31T03:33:26.410Z,77.40
2019-03-31T03:34:26.402Z,77.74
2019-03-31T03:35:26.368Z,77.64
2019-03-31T03:36:26.366Z,77.61
2019-03-31T03:37:26.352Z,77.81
2019-03-31T03:38:26.353Z,77.29
2019-03-31T03:39:26.359Z,77.20
2019-03-31T03:40:26.324Z,76.89
2019-03-31T03:41:26.307Z,76.92
2019-03-31T03:42:26.291Z,77.29
2019-03-31T03:43:26.277Z,77.13
2019-03-31T03:44:26.326Z,77.09
2019-03-31T03:45:26.259Z,76.89
2019-03-31T03:46:26.251Z,77.09
2019-03-31T03:47:26.235Z,76.48
2019-03-31T03:48:26.226Z,76.99
2019-03-31T03:49:26.230Z,76.82
2019-03-31T03:50:26.202Z,77.03
2019-03-31T03:51:26.195Z,76.99
2019-03-31T03:52:26.180Z,76.72
2019-03-31T03:53:26.171Z,76.99
2019-03-31T03:54:26.174Z,77.33
2019-03-31T03:55:26.172Z,77.84
2019-03-31T03:56:29.010Z,77.78
2019-03-31T03:57:26.128Z,77.74
2019-03-31T03:58:26.110Z,78.46
2019-03-31T03:59:26.101Z,78.29
2019-03-31T04:00:26.109Z,78.05
2019-03-31T04:01:26.080Z,78.19
2019-03-31T04:02:26.062Z,77.84
2019-03-31T04:03:30.501Z,77.98
2019-03-31T04:04:27.049Z,77.84
2019-03-31T04:05:26.057Z,77.95
2019-03-31T04:06:26.027Z,78.25
2019-03-31T04:07:26.010Z,78.29
2019-03-31T04:08:26.003Z,78.36
2019-03-31T04:09:26.002Z,77.78
2019-03-31T04:10:26.002Z,77.74
2019-03-31T04:11:26.013Z,77.84
2019-03-31T04:12:25.982Z,77.78
2019-03-31T04:13:25.942Z,78.25
2019-03-31T04:14:25.961Z,77.68
2019-03-31T04:15:25.943Z,78.29
2019-03-31T04:16:25.951Z,78.29
2019-03-31T04:17:25.896Z,78.09
2019-03-31T04:18:25.903Z,78.29
2019-03-31T04:19:25.878Z,78.50
2019-03-31T04:20:25.886Z,78.39
2019-03-31T04:21:25.851Z,78.50
2019-03-31T04:22:25.843Z,78.09
2019-03-31T04:23:25.833Z,78.39
2019-03-31T04:24:25.820Z,77.98
2019-03-31T04:25:25.849Z,78.50
2019-03-31T04:26:25.800Z,78.50
2019-03-31T04:27:25.790Z,78.50
2019-03-31T04:28:25.773Z,78.39
2019-03-31T04:29:25.777Z,78.33
2019-03-31T04:30:25.783Z,78.81
2019-03-31T04:31:25.748Z,78.60
2019-03-31T04:32:25.725Z,78.33
2019-03-31T04:33:25.719Z,78.64
2019-03-31T04:34:25.720Z,78.64
2019-03-31T04:35:25.729Z,78.64
2019-03-31T04:36:25.682Z,78.53
2019-03-31T04:37:25.686Z,78.43
2019-03-31T04:38:25.662Z,78.74
2019-03-31T04:39:25.688Z,79.36
2019-03-31T04:40:25.638Z,79.05
2019-03-31T04:41:25.644Z,78.53
2019-03-31T04:42:25.613Z,78.94
2019-03-31T04:43:25.604Z,78.91
2019-03-31T04:44:25.596Z,79.05
2019-03-31T04:45:25.585Z,79.25
2019-03-31T04:46:25.590Z,78.85
2019-03-31T04:47:25.555Z,79.66
2019-03-31T04:48:25.557Z,79.66
2019-03-31T04:49:25.637Z,79.56
2019-03-31T04:50:25.526Z,79.36
2019-03-31T04:51:25.540Z,79.46
2019-03-31T04:52:25.505Z,79.25
2019-03-31T04:53:25.491Z,79.36
2019-03-31T04:54:25.492Z,79.56
2019-03-31T04:55:25.475Z,79.66
2019-03-31T04:56:25.581Z,79.56
2019-03-31T04:57:25.445Z,79.77
2019-03-31T04:58:25.433Z,79.66
2019-03-31T04:59:25.428Z,79.77
2019-03-31T05:00:25.411Z,79.87
2019-03-31T05:01:25.416Z,79.56
2019-03-31T05:02:27.141Z,79.46
2019-03-31T05:03:25.379Z,79.77
2019-03-31T05:04:25.370Z,79.56
2019-03-31T05:05:25.356Z,79.36
2019-03-31T05:06:25.367Z,79.25
2019-03-31T05:07:25.335Z,79.66
2019-03-31T05:08:25.323Z,79.46
2019-03-31T05:09:25.315Z,79.36
2019-03-31T05:10:25.305Z,79.36
2019-03-31T05:11:25.313Z,79.46
2019-03-31T05:12:25.280Z,79.36
2019-03-31T05:13:25.275Z,79.46
2019-03-31T05:14:25.259Z,79.56
2019-03-31T05:15:25.246Z,79.39
2019-03-31T05:16:25.263Z,79.46
2019-03-31T05:17:25.221Z,79.49
2019-03-31T05:18:25.203Z,79.39
2019-03-31T05:19:25.195Z,79.29
2019-03-31T05:20:25.194Z,79.70
2019-03-31T05:21:25.174Z,79.70
2019-03-31T05:22:25.181Z,79.80
2019-03-31T05:23:25.151Z,79.60
2019-03-31T05:24:25.141Z,79.49
2019-03-31T05:25:25.129Z,79.60
2019-03-31T05:26:25.117Z,79.60
2019-03-31T05:27:25.127Z,79.80
2019-03-31T05:28:25.105Z,79.60
2019-03-31T05:29:25.088Z,79.60
2019-03-31T05:30:25.074Z,79.60
2019-03-31T05:31:25.064Z,79.80
2019-03-31T05:32:25.067Z,79.49
2019-03-31T05:33:25.043Z,79.60
2019-03-31T05:34:25.026Z,79.70
2019-03-31T05:35:27.064Z,80.01
2019-03-31T05:36:25.006Z,79.49
2019-03-31T05:37:25.011Z,79.49
2019-03-31T05:38:24.983Z,79.49
2019-03-31T05:39:24.980Z,79.70
2019-03-31T05:40:24.967Z,79.80
2019-03-31T05:41:24.952Z,79.49
2019-03-31T05:42:24.960Z,79.70
2019-03-31T05:43:24.927Z,79.39
2019-03-31T05:44:24.915Z,79.49
2019-03-31T05:45:24.907Z,79.60
2019-03-31T05:46:24.898Z,79.84
2019-03-31T05:47:24.895Z,79.74
2019-03-31T05:48:24.867Z,79.70
2019-03-31T05:49:24.864Z,79.91
2019-03-31T05:50:24.847Z,79.84
2019-03-31T05:51:24.835Z,80.35
2019-03-31T05:52:24.841Z,80.35
2019-03-31T05:53:24.814Z,80.46
2019-03-31T05:54:24.822Z,80.25
2019-03-31T05:55:24.791Z,80.35
2019-03-31T05:56:24.780Z,80.15
2019-03-31T05:57:24.814Z,80.35
2019-03-31T05:58:24.755Z,80.46
2019-03-31T05:59:24.741Z,79.94
2019-03-31T06:00:24.731Z,80.56
2019-03-31T06:01:24.727Z,80.35
2019-03-31T06:02:24.730Z,80.15
2019-03-31T06:03:24.708Z,80.46
2019-03-31T06:04:33.065Z,80.77
2019-03-31T06:05:25.679Z,80.35
2019-03-31T06:06:24.669Z,80.66
2019-03-31T06:07:24.676Z,80.66
2019-03-31T06:08:24.639Z,80.66
2019-03-31T06:09:24.635Z,80.25
2019-03-31T06:10:24.626Z,79.84
2019-03-31T06:11:24.623Z,79.74
2019-03-31T06:12:24.621Z,79.57
2019-03-31T06:13:24.595Z,79.67
2019-03-31T06:14:24.575Z,79.47
2019-03-31T06:15:24.564Z,79.50
2019-03-31T06:16:24.557Z,79.77
2019-03-31T06:17:24.571Z,79.88
2019-03-31T06:18:24.544Z,79.77
2019-03-31T06:19:24.520Z,79.88
2019-03-31T06:20:24.507Z,79.53
2019-03-31T06:21:24.495Z,79.57
2019-03-31T06:22:24.515Z,79.57
2019-03-31T06:23:24.483Z,79.67
2019-03-31T06:24:24.466Z,79.74
2019-03-31T06:25:24.455Z,79.84
2019-03-31T06:26:24.437Z,79.77
2019-03-31T06:27:24.427Z,78.81
2019-03-31T06:28:24.435Z,79.02
2019-03-31T06:29:24.437Z,78.92
2019-03-31T06:30:24.407Z,77.99
2019-03-31T06:31:24.390Z,79.02
2019-03-31T06:32:24.371Z,78.20
2019-03-31T06:33:24.383Z,78.09
2019-03-31T06:34:24.354Z,78.50
2019-03-31T06:35:24.338Z,78.50
2019-03-31T06:36:24.334Z,78.81
2019-03-31T06:37:24.321Z,78.71
2019-03-31T06:38:24.321Z,77.99
2019-03-31T06:39:24.293Z,78.64
2019-03-31T06:40:24.285Z,78.61
2019-03-31T06:41:24.284Z,78.50
2019-03-31T06:42:24.257Z,78.09
2019-03-31T06:43:24.267Z,78.50
2019-03-31T06:44:24.232Z,78.61
2019-03-31T06:45:24.224Z,78.30
2019-03-31T06:46:24.230Z,77.89
2019-03-31T06:47:24.208Z,78.30
2019-03-31T06:48:24.221Z,77.78
2019-03-31T06:49:24.183Z,77.78
2019-03-31T06:50:24.168Z,78.09
2019-03-31T06:51:24.159Z,76.82
2019-03-31T06:52:24.151Z,76.51
2019-03-31T06:53:24.165Z,76.72
2019-03-31T06:54:24.125Z,77.23
2019-03-31T06:55:24.117Z,76.62
2019-03-31T06:56:24.117Z,77.13
2019-03-31T06:57:24.097Z,76.62
2019-03-31T06:58:24.082Z,76.07
2019-03-31T06:59:24.094Z,76.07
2019-03-31T07:00:24.058Z,75.76
2019-03-31T07:01:24.044Z,75.76
2019-03-31T07:02:24.038Z,75.97
2019-03-31T07:03:24.024Z,75.21
2019-03-31T07:04:24.080Z,75.21
2019-03-31T07:05:24.002Z,74.60
2019-03-31T07:06:23.985Z,74.60
2019-03-31T07:07:24.142Z,73.88
2019-03-31T07:08:23.964Z,73.68
2019-03-31T07:09:23.986Z,73.68
2019-03-31T07:10:23.949Z,73.64
2019-03-31T07:11:23.933Z,73.74
2019-03-31T07:12:23.918Z,73.74
2019-03-31T07:13:23.912Z,73.74
2019-03-31T07:14:23.929Z,73.50
2019-03-31T07:15:23.900Z,73.10
2019-03-31T07:16:23.875Z,72.58
2019-03-31T07:17:23.870Z,73.33
2019-03-31T07:18:23.854Z,73.13
2019-03-31T07:19:23.855Z,73.36
2019-03-31T07:20:23.836Z,74.15
2019-03-31T07:21:23.825Z,73.54
2019-03-31T07:22:24.435Z,73.27
2019-03-31T07:23:23.803Z,73.27
2019-03-31T07:24:23.823Z,73.33
2019-03-31T07:25:23.779Z,73.33
2019-03-31T07:26:23.764Z,72.20
2019-03-31T07:27:23.752Z,72.31
2019-03-31T07:28:23.747Z,72.41
2019-03-31T07:29:23.751Z,72.92
2019-03-31T07:30:23.728Z,73.02
2019-03-31T07:31:23.718Z,72.89
2019-03-31T07:32:23.695Z,71.59
2019-03-31T07:33:23.684Z,72.00
2019-03-31T07:34:23.693Z,71.86
2019-03-31T07:35:23.667Z,70.84
2019-03-31T07:36:23.780Z,70.19
2019-03-31T07:37:23.640Z,69.89
2019-03-31T07:38:23.687Z,69.89
2019-03-31T07:39:23.829Z,69.24
2019-03-31T07:40:23.654Z,68.73
2019-03-31T07:41:23.928Z,68.83
2019-03-31T07:42:23.650Z,69.24
2019-03-31T07:43:23.573Z,69.03
2019-03-31T07:44:23.589Z,68.41
2019-03-31T07:45:23.553Z,68.52
2019-03-31T07:46:23.549Z,68.01
2019-03-31T07:47:23.534Z,68.11
2019-03-31T07:48:23.516Z,69.65
2019-03-31T07:49:23.543Z,69.13
2019-03-31T07:50:23.499Z,68.73
2019-03-31T07:51:23.485Z,68.62
2019-03-31T07:52:23.474Z,68.73
2019-03-31T07:53:23.465Z,68.83
2019-03-31T07:54:23.479Z,68.62
2019-03-31T07:55:23.440Z,68.83
2019-03-31T07:56:23.445Z,68.83
2019-03-31T07:57:23.415Z,68.62
2019-03-31T07:58:23.449Z,68.38
2019-03-31T07:59:23.439Z,67.80
2019-03-31T08:00:23.406Z,68.52
2019-03-31T08:01:23.514Z,68.69
2019-03-31T08:02:23.365Z,68.59
2019-03-31T08:03:23.349Z,68.28
2019-03-31T08:04:23.334Z,67.97
2019-03-31T08:05:32.929Z,67.97
2019-03-31T08:06:24.310Z,67.46
2019-03-31T08:07:23.304Z,67.97
2019-03-31T08:08:23.287Z,66.44
2019-03-31T08:09:23.276Z,66.44
2019-03-31T08:10:23.286Z,66.54
2019-03-31T08:11:23.256Z,66.24
2019-03-31T08:12:23.243Z,66.41
2019-03-31T08:13:23.233Z,66.51
2019-03-31T08:14:23.218Z,66.31
2019-03-31T08:15:23.232Z,66.51
2019-03-31T08:16:23.199Z,66.41
2019-03-31T08:17:23.186Z,66.20
2019-03-31T08:18:23.174Z,66.54
2019-03-31T08:19:23.166Z,67.57
2019-03-31T08:20:23.173Z,67.57
2019-03-31T08:21:23.142Z,68.08
2019-03-31T08:22:23.129Z,68.01
2019-03-31T08:23:23.144Z,68.11
2019-03-31T08:24:23.109Z,68.41
2019-03-31T08:25:23.113Z,68.49
2019-03-31T08:26:23.081Z,68.73
2019-03-31T08:27:23.076Z,68.69
2019-03-31T08:28:23.062Z,67.87
2019-03-31T08:29:23.048Z,68.08
2019-03-31T08:30:23.059Z,68.15
2019-03-31T08:31:23.024Z,68.35
2019-03-31T08:32:23.020Z,67.84
2019-03-31T08:33:23.008Z,66.41
2019-03-31T08:34:22.994Z,66.31
2019-03-31T08:35:23.002Z,66.61
2019-03-31T08:36:22.976Z,66.75
2019-03-31T08:37:22.958Z,66.44
2019-03-31T08:38:24.510Z,67.57
2019-03-31T08:39:22.933Z,66.64
2019-03-31T08:40:22.931Z,66.31
2019-03-31T08:41:22.932Z,66.51
2019-03-31T08:42:22.904Z,66.41
2019-03-31T08:43:22.896Z,66.72
2019-03-31T08:44:22.877Z,66.41
2019-03-31T08:45:22.870Z,66.58
2019-03-31T08:46:22.871Z,65.97
2019-03-31T08:47:22.844Z,65.46
2019-03-31T08:48:22.829Z,65.12
2019-03-31T08:49:22.824Z,64.89
2019-03-31T08:50:22.811Z,63.22
2019-03-31T08:51:22.829Z,62.61
2019-03-31T08:52:22.790Z,60.94
2019-03-31T08:53:22.851Z,61.35
2019-03-31T08:54:22.765Z,61.35
2019-03-31T08:55:22.754Z,61.18
2019-03-31T08:56:22.761Z,61.69
2019-03-31T08:57:22.729Z,62.02
2019-03-31T08:58:22.723Z,61.92
2019-03-31T08:59:22.728Z,63.25
2019-03-31T09:00:22.706Z,62.66
2019-03-31T09:01:22.711Z,63.89
2019-03-31T09:02:22.693Z,63.59
2019-03-31T09:03:22.670Z,64.89
2019-03-31T09:04:22.657Z,63.56
2019-03-31T09:05:22.641Z,63.25
2019-03-31T09:06:22.811Z,63.66
2019-03-31T09:07:22.623Z,63.35
2019-03-31T09:08:22.617Z,63.15
2019-03-31T09:09:22.595Z,62.54
2019-03-31T09:10:22.587Z,63.35
2019-03-31T09:11:23.088Z,62.66
2019-03-31T09:12:22.572Z,63.18
2019-03-31T09:13:22.557Z,63.39
2019-03-31T09:14:22.542Z,63.18
2019-03-31T09:15:22.529Z,62.66
2019-03-31T09:16:22.574Z,62.08
2019-03-31T09:17:22.519Z,62.46
2019-03-31T09:18:22.500Z,62.66
2019-03-31T09:19:22.495Z,63.28
2019-03-31T09:20:22.471Z,61.65
2019-03-31T09:21:22.486Z,62.05
2019-03-31T09:22:22.458Z,62.57
2019-03-31T09:23:22.438Z,62.26
2019-03-31T09:24:22.427Z,61.44
2019-03-31T09:25:22.419Z,62.18
2019-03-31T09:26:22.428Z,63.10
2019-03-31T09:27:22.393Z,62.62
2019-03-31T09:28:22.378Z,63.54
2019-03-31T09:29:22.364Z,64.39
2019-03-31T09:30:22.362Z,64.39
2019-03-31T09:31:22.372Z,64.83
2019-03-31T09:32:22.336Z,65.14
2019-03-31T09:33:22.333Z,65.04
2019-03-31T09:34:22.322Z,65.45
2019-03-31T09:35:22.311Z,65.58
2019-03-31T09:36:22.320Z,65.96
2019-03-31T09:37:22.287Z,66.81
2019-03-31T09:38:22.271Z,66.50
2019-03-31T09:39:22.267Z,67.73
2019-03-31T09:40:22.245Z,66.37
2019-03-31T09:41:22.264Z,66.47
2019-03-31T09:42:22.237Z,67.90
2019-03-31T09:43:22.217Z,67.60
2019-03-31T09:44:22.202Z,67.80
2019-03-31T09:45:22.187Z,67.19
2019-03-31T09:46:22.218Z,66.47
2019-03-31T09:47:22.175Z,66.47
2019-03-31T09:48:22.217Z,66.37
2019-03-31T09:49:22.145Z,66.57
2019-03-31T09:50:22.129Z,66.67
2019-03-31T09:51:22.122Z,66.98
2019-03-31T09:52:22.132Z,66.67
2019-03-31T09:53:22.110Z,67.22
2019-03-31T09:54:22.097Z,66.30
2019-03-31T09:55:23.169Z,67.63
2019-03-31T09:56:22.065Z,67.66
2019-03-31T09:57:22.165Z,67.83
2019-03-31T09:58:22.051Z,67.76
2019-03-31T09:59:22.043Z,67.73
2019-03-31T10:00:22.058Z,67.94
2019-03-31T10:01:22.012Z,67.94
2019-03-31T10:02:22.013Z,68.24
2019-03-31T10:03:21.997Z,67.83
2019-03-31T10:04:21.987Z,68.45
2019-03-31T10:05:21.975Z,68.76
2019-03-31T10:06:30.061Z,68.86
2019-03-31T10:07:23.906Z,69.57
2019-03-31T10:08:22.497Z,69.17
2019-03-31T10:09:21.923Z,68.73
2019-03-31T10:10:21.911Z,68.52
2019-03-31T10:11:21.903Z,66.57
2019-03-31T10:12:21.939Z,67.46
2019-03-31T10:13:21.872Z,66.03
2019-03-31T10:14:21.859Z,65.11
2019-03-31T10:15:21.858Z,65.01
2019-03-31T10:16:21.872Z,65.39
2019-03-31T10:17:21.874Z,63.44
2019-03-31T10:18:21.824Z,62.21
2019-03-31T10:19:21.820Z,61.70
2019-03-31T10:20:21.793Z,61.77
2019-03-31T10:21:21.791Z,62.29
2019-03-31T10:22:21.801Z,61.67
2019-03-31T10:23:21.793Z,62.08
2019-03-31T10:24:21.751Z,61.88
2019-03-31T10:25:21.747Z,61.34
2019-03-31T10:26:31.759Z,62.05
2019-03-31T10:27:22.715Z,60.93
2019-03-31T10:28:21.730Z,61.03
2019-03-31T10:29:21.688Z,60.83
2019-03-31T10:30:21.686Z,61.13
2019-03-31T10:31:21.673Z,61.51
2019-03-31T10:32:21.668Z,59.88
2019-03-31T10:33:21.678Z,60.08
2019-03-31T10:34:21.635Z,59.98
2019-03-31T10:35:21.622Z,60.19
2019-03-31T10:36:21.690Z,60.26
2019-03-31T10:37:21.604Z,58.93
2019-03-31T10:38:21.626Z,58.75
2019-03-31T10:39:21.583Z,60.01
2019-03-31T10:40:21.575Z,60.21
2019-03-31T10:41:21.566Z,59.88
2019-03-31T10:42:21.566Z,60.19
2019-03-31T10:43:21.572Z,58.65
2019-03-31T10:44:21.537Z,57.91
2019-03-31T10:45:21.593Z,58.19
2019-03-31T10:46:21.500Z,58.09
2019-03-31T10:47:21.497Z,57.57
2019-03-31T10:48:21.562Z,57.88
2019-03-31T10:49:21.489Z,58.01
2019-03-31T10:50:21.457Z,57.60
2019-03-31T10:51:21.446Z,58.11
2019-03-31T10:52:21.432Z,57.40
2019-03-31T10:53:21.440Z,57.93
2019-03-31T10:54:21.442Z,57.45
2019-03-31T10:55:21.404Z,58.17
2019-03-31T10:56:21.396Z,58.40
2019-03-31T10:57:21.379Z,58.48
2019-03-31T10:58:21.364Z,60.44
2019-03-31T10:59:21.389Z,60.75
2019-03-31T11:00:21.343Z,59.60
2019-03-31T11:01:21.345Z,60.01
2019-03-31T11:02:21.321Z,59.78
2019-03-31T11:03:21.311Z,59.60
2019-03-31T11:04:21.318Z,58.86
2019-03-31T11:05:21.300Z,58.34
2019-03-31T11:06:21.282Z,59.37
2019-03-31T11:07:21.270Z,58.68
2019-03-31T11:08:21.252Z,59.37
2019-03-31T11:09:21.256Z,59.27
2019-03-31T11:10:21.229Z,58.01
2019-03-31T11:11:21.214Z,58.52
2019-03-31T11:12:21.226Z,58.25
2019-03-31T11:13:21.201Z,58.04
2019-03-31T11:14:21.198Z,57.50
2019-03-31T11:15:21.182Z,54.05
2019-03-31T11:16:21.163Z,49.90
2019-03-31T11:17:21.158Z,45.51
2019-03-31T11:18:21.138Z,43.16
2019-03-31T11:19:21.156Z,40.75
2019-03-31T11:20:21.127Z,38.58
2019-03-31T11:21:21.110Z,37.74
2019-03-31T11:22:21.153Z,36.10
2019-03-31T11:23:21.091Z,34.88
2019-03-31T11:24:21.179Z,34.44
2019-03-31T11:25:24.986Z,34.86
2019-03-31T11:26:22.064Z,34.94
2019-03-31T11:27:21.050Z,32.89
2019-03-31T11:28:21.032Z,30.44
2019-03-31T11:29:21.023Z,31.23
2019-03-31T11:30:21.025Z,29.68
2019-03-31T11:31:21.547Z,28.05
2019-03-31T11:32:20.993Z,28.23
2019-03-31T11:33:20.977Z,29.51
2019-03-31T11:34:20.971Z,28.55
2019-03-31T11:35:20.972Z,28.44
2019-03-31T11:36:20.940Z,27.84
2019-03-31T11:37:20.938Z,28.12
2019-03-31T11:38:20.962Z,28.23
2019-03-31T11:39:20.928Z,28.70
2019-03-31T11:40:20.967Z,28.44
2019-03-31T11:41:20.896Z,28.36
2019-03-31T11:42:20.892Z,29.75
2019-03-31T11:43:20.887Z,31.56
2019-03-31T11:44:20.854Z,34.16
2019-03-31T11:45:20.873Z,35.53
2019-03-31T11:46:20.844Z,38.02
2019-03-31T11:47:20.869Z,39.48
2019-03-31T11:48:20.826Z,40.11
2019-03-31T11:49:20.804Z,39.72
2019-03-31T11:50:20.857Z,40.43
2019-03-31T11:51:20.781Z,39.42
2019-03-31T11:52:20.783Z,39.01
2019-03-31T11:53:20.765Z,38.32
2019-03-31T11:54:20.764Z,37.88
2019-03-31T11:55:20.761Z,39.43
2019-03-31T11:56:20.746Z,39.86
2019-03-31T11:57:20.724Z,41.17
2019-03-31T11:58:20.720Z,40.79
2019-03-31T11:59:21.113Z,41.80
2019-03-31T12:00:20.727Z,42.63
2019-03-31T12:01:20.674Z,44.32
2019-03-31T12:02:27.092Z,44.85
2019-03-31T12:03:21.651Z,44.75
2019-03-31T12:04:20.645Z,44.77
2019-03-31T12:05:20.658Z,45.99
2019-03-31T12:06:20.618Z,46.07
2019-03-31T12:07:27.776Z,42.76
2019-03-31T12:08:21.597Z,41.74
2019-03-31T12:09:20.593Z,41.44
2019-03-31T12:10:20.599Z,41.22
2019-03-31T12:11:20.635Z,40.64
2019-03-31T12:12:20.552Z,37.45
2019-03-31T12:13:20.555Z,35.10
2019-03-31T12:14:20.524Z,35.82
2019-03-31T12:15:20.529Z,37.38
2019-03-31T12:16:20.507Z,37.53
2019-03-31T12:17:20.494Z,38.76
2019-03-31T12:18:20.519Z,37.79
2019-03-31T12:19:20.482Z,37.60
2019-03-31T12:20:20.536Z,39.14
2019-03-31T12:21:20.460Z,34.04
2019-03-31T12:22:20.440Z,31.01
2019-03-31T12:23:20.434Z,30.10
2019-03-31T12:24:20.488Z,29.08
2019-03-31T12:25:20.470Z,28.75
2019-03-31T12:26:20.414Z,28.52
2019-03-31T12:27:20.394Z,28.00
2019-03-31T12:28:21.071Z,27.97
2019-03-31T12:29:20.370Z,27.27
2019-03-31T12:30:20.350Z,27.24
2019-03-31T12:31:20.608Z,26.54
2019-03-31T12:32:20.336Z,26.03
2019-03-31T12:33:20.337Z,24.71
2019-03-31T12:34:20.308Z,25.21
2019-03-31T12:35:20.355Z,26.64
2019-03-31T12:36:20.324Z,26.57
2019-03-31T12:37:20.281Z,24.93
2019-03-31T12:38:20.270Z,24.30
2019-03-31T12:39:20.252Z,23.28
2019-03-31T12:40:20.260Z,23.07
2019-03-31T12:41:20.251Z,21.88
2019-03-31T12:42:20.226Z,21.99
2019-03-31T12:43:20.213Z,22.89
2019-03-31T12:44:20.215Z,21.88
2019-03-31T12:45:20.220Z,21.92
2019-03-31T12:46:20.181Z,23.36
2019-03-31T12:47:20.199Z,24.33
2019-03-31T12:48:20.167Z,23.11
2019-03-31T12:49:20.155Z,22.38
2019-03-31T12:50:20.833Z,22.63
2019-03-31T12:51:20.181Z,19.74
2019-03-31T12:52:20.142Z,20.03